Time;durP1;ratioP1;P1;durP2;ratioP2;P2;SDS_P1;SDS_P2;PMS_P1;PMS_P2;Temp;Humidity;BMP_temperature;BMP_pressure;BME280_temperature;BME280_humidity;BME280_pressure;Samples;Min_cycle;Max_cycle;Signal;HPM_P1;HPM_P2
2022/08/09 00:01:47;;;;;;;3.10;1.58;;;;;;;;;;5059994;28;20090;-76
2022/08/09 00:04:14;;;;;;;3.25;1.65;;;;;;;;;;5053787;28;20123;-74
2022/08/09 00:06:39;;;;;;;3.30;1.50;;;;;;;;;;5061691;28;20020;-74
2022/08/09 00:09:05;;;;;;;3.17;1.50;;;;;;;;;;5061998;28;20484;-75
2022/08/09 00:11:30;;;;;;;2.90;1.60;;;;;;;;;;5063120;28;20027;-77
2022/08/09 00:13:56;;;;;;;4.50;1.70;;;;;;;;;;5046093;28;20094;-79
2022/08/09 00:16:21;;;;;;;3.05;1.90;;;;;;;;;;5052656;28;20082;-75
2022/08/09 00:18:48;;;;;;;3.25;1.70;;;;;;;;;;5057546;28;20075;-76
2022/08/09 00:21:14;;;;;;;3.30;1.80;;;;;;;;;;5061850;28;20067;-76
2022/08/09 00:23:39;;;;;;;2.80;1.65;;;;;;;;;;5048936;28;20536;-76
2022/08/09 00:26:06;;;;;;;3.17;1.80;;;;;;;;;;5061011;28;20032;-74
2022/08/09 00:28:32;;;;;;;3.20;1.90;;;;;;;;;;5061129;28;20685;-74
2022/08/09 00:30:58;;;;;;;2.55;1.63;;;;;;;;;;5055790;28;20748;-74
2022/08/09 00:33:23;;;;;;;4.30;2.13;;;;;;;;;;5063109;28;20073;-76
2022/08/09 00:35:49;;;;;;;4.38;1.88;;;;;;;;;;5060529;28;20030;-75
2022/08/09 00:38:14;;;;;;;2.83;1.70;;;;;;;;;;5062825;28;20034;-73
2022/08/09 00:40:41;;;;;;;4.43;1.92;;;;;;;;;;5062253;28;20385;-79
2022/08/09 00:43:07;;;;;;;5.03;1.95;;;;;;;;;;5056678;28;20503;-76
2022/08/09 00:45:33;;;;;;;2.78;1.80;;;;;;;;;;5060112;28;20032;-76
2022/08/09 00:47:59;;;;;;;3.22;1.92;;;;;;;;;;5065356;28;20516;-79
2022/08/09 00:50:24;;;;;;;2.95;2.00;;;;;;;;;;5058617;28;20084;-75
2022/08/09 00:52:53;;;;;;;3.58;2.15;;;;;;;;;;5060706;28;20052;-74
2022/08/09 00:55:19;;;;;;;3.28;2.20;;;;;;;;;;5060843;28;20028;-79
2022/08/09 00:57:45;;;;;;;2.80;1.70;;;;;;;;;;5062685;28;20025;-79
2022/08/09 01:00:12;;;;;;;3.03;2.17;;;;;;;;;;5053247;28;20032;-79
2022/08/09 01:02:44;;;;;;;3.60;2.10;;;;;;;;;;5056547;28;20086;-76
2022/08/09 01:05:36;;;;;;;3.72;2.00;;;;;;;;;;5058916;28;20017;-76
2022/08/09 01:08:10;;;;;;;3.20;1.90;;;;;;;;;;5042495;28;20072;-76
2022/08/09 01:10:56;;;;;;;4.93;2.00;;;;;;;;;;5056787;28;20056;-79
2022/08/09 01:13:28;;;;;;;3.90;1.90;;;;;;;;;;5055552;28;20428;-76
2022/08/09 01:15:55;;;;;;;3.65;2.00;;;;;;;;;;5051811;28;20039;-79
2022/08/09 01:18:28;;;;;;;4.18;2.00;;;;;;;;;;5052818;28;20028;-75
2022/08/09 01:21:30;;;;;;;2.95;2.25;;;;;;;;;;5059064;28;20618;-76
2022/08/09 01:23:58;;;;;;;3.73;2.30;;;;;;;;;;5062745;28;20176;-76
2022/08/09 01:26:53;;;;;;;4.05;2.15;;;;;;;;;;5058258;28;20028;-76
2022/08/09 01:29:25;;;;;;;3.50;1.90;;;;;;;;;;5056228;28;20051;-76
2022/08/09 01:31:52;;;;;;;2.72;1.92;;;;;;;;;;5058876;28;20048;-74
2022/08/09 01:34:21;;;;;;;3.85;1.98;;;;;;;;;;5063211;28;20381;-76
2022/08/09 01:36:48;;;;;;;2.65;1.80;;;;;;;;;;5066383;28;20569;-75
2022/08/09 01:39:15;;;;;;;4.10;2.10;;;;;;;;;;5060222;28;20103;-75
2022/08/09 01:41:42;;;;;;;2.65;1.75;;;;;;;;;;5067515;28;20025;-79
2022/08/09 01:44:11;;;;;;;2.83;2.13;;;;;;;;;;5058467;28;21052;-75
2022/08/09 01:46:41;;;;;;;3.83;2.50;;;;;;;;;;5060453;28;20480;-75
2022/08/09 01:49:13;;;;;;;3.00;1.90;;;;;;;;;;5060721;28;20452;-79
2022/08/09 01:51:42;;;;;;;3.47;2.08;;;;;;;;;;5060627;28;20028;-80
2022/08/09 01:54:09;;;;;;;4.07;1.90;;;;;;;;;;5061281;28;20415;-77
2022/08/09 01:56:37;;;;;;;3.13;2.20;;;;;;;;;;5059476;28;20491;-74
2022/08/09 01:59:10;;;;;;;3.22;2.03;;;;;;;;;;5066144;28;20396;-75
2022/08/09 02:01:38;;;;;;;3.20;1.98;;;;;;;;;;5060250;28;20043;-77
2022/08/09 02:04:05;;;;;;;3.65;1.90;;;;;;;;;;5063963;28;20369;-76
2022/08/09 02:09:17;;;;;;;3.85;2.13;;;;;;;;;;5065003;28;20032;-76
2022/08/09 02:11:43;;;;;;;3.63;2.15;;;;;;;;;;5062169;28;20028;-76
2022/08/09 02:14:11;;;;;;;3.35;2.22;;;;;;;;;;5062426;28;20495;-77
2022/08/09 02:16:39;;;;;;;3.35;2.25;;;;;;;;;;5063307;28;20400;-80
2022/08/09 02:19:05;;;;;;;2.88;2.10;;;;;;;;;;5061914;28;20031;-75
2022/08/09 02:21:35;;;;;;;5.55;2.30;;;;;;;;;;5064266;28;20066;-75
2022/08/09 02:24:04;;;;;;;3.65;2.15;;;;;;;;;;5064624;28;20511;-76
2022/08/09 02:26:33;;;;;;;5.05;2.05;;;;;;;;;;5049127;28;20028;-77
2022/08/09 02:29:05;;;;;;;5.80;2.20;;;;;;;;;;5062827;28;20024;-80
2022/08/09 02:31:37;;;;;;;3.15;1.73;;;;;;;;;;5064168;28;20507;-80
2022/08/09 02:34:16;;;;;;;5.18;2.38;;;;;;;;;;5062495;28;20044;-74
2022/08/09 02:36:47;;;;;;;3.50;2.20;;;;;;;;;;5065782;28;20060;-76
2022/08/09 02:39:19;;;;;;;3.03;2.17;;;;;;;;;;5060510;28;20028;-75
2022/08/09 02:41:52;;;;;;;2.77;2.10;;;;;;;;;;5066198;28;20035;-75
2022/08/09 02:44:21;;;;;;;4.07;2.00;;;;;;;;;;5062743;28;20309;-75
2022/08/09 02:46:51;;;;;;;3.13;2.20;;;;;;;;;;5065097;28;20068;-79
2022/08/09 02:49:20;;;;;;;3.15;1.88;;;;;;;;;;5059437;28;20027;-80
2022/08/09 02:51:52;;;;;;;4.78;2.17;;;;;;;;;;5060332;28;20033;-75
2022/08/09 02:54:20;;;;;;;4.80;2.10;;;;;;;;;;5060818;28;20055;-76
2022/08/09 02:56:48;;;;;;;3.30;2.17;;;;;;;;;;5066979;28;20748;-75
2022/08/09 02:59:15;;;;;;;4.05;2.10;;;;;;;;;;5066283;28;20408;-77
2022/08/09 03:01:43;;;;;;;3.85;2.35;;;;;;;;;;5063326;28;20120;-75
2022/08/09 03:04:11;;;;;;;3.47;2.15;;;;;;;;;;5062851;28;20029;-76
2022/08/09 03:06:37;;;;;;;3.63;2.10;;;;;;;;;;5062083;28;20028;-79
2022/08/09 03:09:05;;;;;;;3.83;2.00;;;;;;;;;;5065275;28;20032;-74
2022/08/09 03:11:31;;;;;;;3.50;2.15;;;;;;;;;;5065195;28;20023;-77
2022/08/09 03:13:57;;;;;;;3.00;1.92;;;;;;;;;;5067142;28;20021;-77
2022/08/09 03:16:23;;;;;;;4.15;2.50;;;;;;;;;;5059887;28;20453;-79
2022/08/09 03:18:49;;;;;;;4.93;2.38;;;;;;;;;;5060354;28;20031;-76
2022/08/09 03:21:16;;;;;;;3.90;2.47;;;;;;;;;;5059938;28;20090;-76
2022/08/09 03:23:45;;;;;;;4.00;2.25;;;;;;;;;;5064383;28;20052;-74
2022/08/09 03:26:15;;;;;;;3.65;2.40;;;;;;;;;;5060647;28;20029;-75
2022/08/09 03:28:42;;;;;;;6.13;2.50;;;;;;;;;;5066744;28;20060;-76
2022/08/09 03:31:08;;;;;;;5.60;2.15;;;;;;;;;;5063663;28;20028;-76
2022/08/09 03:33:35;;;;;;;3.50;2.30;;;;;;;;;;5066705;28;20361;-80
2022/08/09 03:36:01;;;;;;;5.00;2.55;;;;;;;;;;5057827;28;20035;-76
2022/08/09 03:38:26;;;;;;;3.80;2.40;;;;;;;;;;5065471;28;20472;-75
2022/08/09 03:40:52;;;;;;;4.13;2.30;;;;;;;;;;5059926;28;20107;-76
2022/08/09 03:43:17;;;;;;;4.53;2.60;;;;;;;;;;5064200;28;20066;-76
2022/08/09 03:45:42;;;;;;;4.40;2.40;;;;;;;;;;5057577;28;20032;-75
2022/08/09 03:48:08;;;;;;;3.17;2.15;;;;;;;;;;5054548;28;20040;-76
2022/08/09 03:50:35;;;;;;;4.15;2.47;;;;;;;;;;5055593;28;20077;-76
2022/08/09 03:53:02;;;;;;;4.60;2.40;;;;;;;;;;5064172;28;20047;-75
2022/08/09 03:55:27;;;;;;;4.15;2.60;;;;;;;;;;5059087;28;20044;-77
2022/08/09 03:57:53;;;;;;;3.78;2.60;;;;;;;;;;5064236;28;20035;-80
2022/08/09 04:00:18;;;;;;;3.65;2.53;;;;;;;;;;5057883;28;20137;-80
2022/08/09 04:02:45;;;;;;;4.72;2.70;;;;;;;;;;5056509;28;20032;-74
2022/08/09 04:05:12;;;;;;;4.32;2.50;;;;;;;;;;5059528;28;20040;-76
2022/08/09 04:07:37;;;;;;;3.85;2.60;;;;;;;;;;5063544;28;20039;-76
2022/08/09 04:10:03;;;;;;;3.65;2.47;;;;;;;;;;5066826;28;20036;-78
2022/08/09 04:12:42;;;;;;;5.00;2.75;;;;;;;;;;5063240;28;20020;-75
2022/08/09 04:15:08;;;;;;;4.50;2.60;;;;;;;;;;5060145;28;20028;-79
2022/08/09 04:17:34;;;;;;;4.93;2.67;;;;;;;;;;5044177;28;20043;-77
2022/08/09 04:19:59;;;;;;;3.53;2.20;;;;;;;;;;5062811;28;20031;-75
2022/08/09 04:22:25;;;;;;;5.68;2.85;;;;;;;;;;5058081;28;20212;-75
2022/08/09 04:24:50;;;;;;;3.22;2.40;;;;;;;;;;5058982;28;20029;-75
2022/08/09 04:27:15;;;;;;;3.90;2.30;;;;;;;;;;5058854;28;20028;-75
2022/08/09 04:29:41;;;;;;;4.20;2.60;;;;;;;;;;5063257;28;20051;-74
2022/08/09 04:32:06;;;;;;;4.00;2.42;;;;;;;;;;5060350;28;21671;-76
2022/08/09 04:34:32;;;;;;;5.85;2.80;;;;;;;;;;5055250;28;20062;-81
2022/08/09 04:36:59;;;;;;;3.72;2.33;;;;;;;;;;5061555;28;20031;-76
2022/08/09 04:39:24;;;;;;;4.55;2.70;;;;;;;;;;5060412;28;20048;-76
2022/08/09 04:41:50;;;;;;;4.32;2.78;;;;;;;;;;5068069;28;20052;-76
2022/08/09 04:44:15;;;;;;;5.93;2.78;;;;;;;;;;5061748;28;20043;-76
2022/08/09 04:46:41;;;;;;;5.20;2.50;;;;;;;;;;5057531;28;20029;-77
2022/08/09 04:49:07;;;;;;;3.70;2.53;;;;;;;;;;5059392;28;20107;-81
2022/08/09 04:51:33;;;;;;;3.70;2.63;;;;;;;;;;5057448;28;20035;-76
2022/08/09 04:53:58;;;;;;;4.10;2.42;;;;;;;;;;5063578;28;20376;-77
2022/08/09 04:56:24;;;;;;;4.65;2.85;;;;;;;;;;5069125;28;20024;-75
2022/08/09 04:58:49;;;;;;;4.47;2.78;;;;;;;;;;5062861;28;20474;-75
2022/08/09 05:01:14;;;;;;;5.07;2.40;;;;;;;;;;5052992;28;20046;-77
2022/08/09 05:03:40;;;;;;;4.85;2.80;;;;;;;;;;5067143;28;20025;-77
2022/08/09 05:06:06;;;;;;;4.80;2.90;;;;;;;;;;5059815;28;20035;-76
2022/08/09 05:08:33;;;;;;;4.47;2.75;;;;;;;;;;5053919;28;20107;-82
2022/08/09 05:10:59;;;;;;;4.65;2.88;;;;;;;;;;5058867;28;20349;-76
2022/08/09 05:13:25;;;;;;;4.63;2.65;;;;;;;;;;5052787;28;20027;-74
2022/08/09 05:15:50;;;;;;;4.47;2.70;;;;;;;;;;5054209;28;20032;-76
2022/08/09 05:18:16;;;;;;;4.80;2.90;;;;;;;;;;5059423;28;20037;-76
2022/08/09 05:20:41;;;;;;;4.07;2.80;;;;;;;;;;5054866;28;20381;-79
2022/08/09 05:23:06;;;;;;;4.20;2.83;;;;;;;;;;5058144;28;20036;-79
2022/08/09 05:25:32;;;;;;;5.53;2.92;;;;;;;;;;5060837;28;20055;-76
2022/08/09 05:27:57;;;;;;;4.60;2.85;;;;;;;;;;5061746;28;20569;-76
2022/08/09 05:30:23;;;;;;;3.80;2.85;;;;;;;;;;5055817;28;20553;-80
2022/08/09 05:32:48;;;;;;;5.78;3.22;;;;;;;;;;5054951;28;20041;-81
2022/08/09 05:35:13;;;;;;;5.95;3.30;;;;;;;;;;5051751;28;20543;-76
2022/08/09 05:37:39;;;;;;;6.22;3.35;;;;;;;;;;5053373;28;20580;-75
2022/08/09 05:40:05;;;;;;;5.63;3.50;;;;;;;;;;5059935;28;20119;-77
2022/08/09 05:42:31;;;;;;;4.70;3.30;;;;;;;;;;5061545;28;20024;-82
2022/08/09 05:44:56;;;;;;;8.43;3.72;;;;;;;;;;5054197;28;20051;-76
2022/08/09 05:47:24;;;;;;;5.20;3.40;;;;;;;;;;5057082;28;20032;-81
2022/08/09 05:49:50;;;;;;;4.05;3.08;;;;;;;;;;5076944;28;20111;-77
2022/08/09 05:52:16;;;;;;;8.82;3.35;;;;;;;;;;5059656;28;20024;-76
2022/08/09 05:54:41;;;;;;;8.77;4.55;;;;;;;;;;5059252;28;20373;-77
2022/08/09 05:57:07;;;;;;;6.68;3.50;;;;;;;;;;5061053;28;20051;-76
2022/08/09 05:59:32;;;;;;;6.05;2.90;;;;;;;;;;5063202;28;20029;-77
2022/08/09 06:01:58;;;;;;;5.32;3.05;;;;;;;;;;5068322;28;20030;-76
2022/08/09 06:04:23;;;;;;;5.40;3.38;;;;;;;;;;5065456;28;20500;-77
2022/08/09 06:06:49;;;;;;;6.45;3.20;;;;;;;;;;5064127;28;21448;-76
2022/08/09 06:09:14;;;;;;;6.90;3.25;;;;;;;;;;5064364;28;20035;-74
2022/08/09 06:11:40;;;;;;;5.45;3.10;;;;;;;;;;5060913;28;20013;-75
2022/08/09 06:14:05;;;;;;;6.70;3.10;;;;;;;;;;5061521;28;20102;-76
2022/08/09 06:16:30;;;;;;;4.53;2.70;;;;;;;;;;5058619;28;20024;-78
2022/08/09 06:18:56;;;;;;;6.70;3.78;;;;;;;;;;5063134;28;20028;-76
2022/08/09 06:21:21;;;;;;;5.13;3.20;;;;;;;;;;5059282;28;20037;-77
2022/08/09 06:23:47;;;;;;;5.05;3.60;;;;;;;;;;5065780;28;20024;-77
2022/08/09 06:26:17;;;;;;;6.13;3.63;;;;;;;;;;5055907;28;20492;-76
2022/08/09 06:28:42;;;;;;;7.00;3.70;;;;;;;;;;5062173;28;20040;-74
2022/08/09 06:31:07;;;;;;;5.55;3.08;;;;;;;;;;5059607;28;20465;-79
2022/08/09 06:33:33;;;;;;;5.45;3.00;;;;;;;;;;5054142;28;20043;-77
2022/08/09 06:35:58;;;;;;;6.43;3.33;;;;;;;;;;5053596;28;20028;-77
2022/08/09 06:38:24;;;;;;;5.82;3.50;;;;;;;;;;5052652;28;20109;-81
2022/08/09 06:40:50;;;;;;;6.10;4.25;;;;;;;;;;5054545;28;20029;-81
2022/08/09 06:43:15;;;;;;;5.82;3.53;;;;;;;;;;5058914;28;20032;-76
2022/08/09 06:45:41;;;;;;;6.20;3.78;;;;;;;;;;5064732;28;20488;-77
2022/08/09 06:48:06;;;;;;;6.47;3.50;;;;;;;;;;5069902;28;20036;-76
2022/08/09 06:50:31;;;;;;;6.28;3.28;;;;;;;;;;5061271;28;20056;-74
2022/08/09 06:52:59;;;;;;;7.25;3.30;;;;;;;;;;5061142;28;20017;-77
2022/08/09 06:55:28;;;;;;;4.85;3.22;;;;;;;;;;5061699;28;20059;-80
2022/08/09 06:57:54;;;;;;;5.07;3.22;;;;;;;;;;5063960;28;20437;-81
2022/08/09 07:00:19;;;;;;;5.03;3.40;;;;;;;;;;5060392;28;20067;-81
2022/08/09 07:02:45;;;;;;;6.63;3.30;;;;;;;;;;5069963;28;20044;-81
2022/08/09 07:05:10;;;;;;;6.00;3.10;;;;;;;;;;5070829;28;20111;-74
2022/08/09 07:07:35;;;;;;;4.85;3.13;;;;;;;;;;5070958;28;20425;-82
2022/08/09 07:10:01;;;;;;;5.22;3.20;;;;;;;;;;5066268;28;20040;-76
2022/08/09 07:12:26;;;;;;;4.50;3.00;;;;;;;;;;5068050;28;20058;-76
2022/08/09 07:14:52;;;;;;;4.65;2.85;;;;;;;;;;5069158;28;20028;-74
2022/08/09 07:17:20;;;;;;;4.60;2.92;;;;;;;;;;5072056;28;20028;-75
2022/08/09 07:19:46;;;;;;;5.30;2.90;;;;;;;;;;5070351;28;20116;-76
2022/08/09 07:22:11;;;;;;;5.82;2.78;;;;;;;;;;5073768;28;20539;-81
2022/08/09 07:24:37;;;;;;;5.93;3.08;;;;;;;;;;5069277;28;20042;-76
2022/08/09 07:27:03;;;;;;;4.75;2.97;;;;;;;;;;5068963;28;20623;-77
2022/08/09 07:29:28;;;;;;;6.03;3.17;;;;;;;;;;5063353;28;20073;-75
2022/08/09 07:31:53;;;;;;;5.13;2.72;;;;;;;;;;5062895;28;20455;-76
2022/08/09 07:34:20;;;;;;;4.32;2.53;;;;;;;;;;5062547;28;20056;-77
2022/08/09 07:36:45;;;;;;;5.35;2.70;;;;;;;;;;5068806;28;20039;-78
2022/08/09 07:39:12;;;;;;;5.80;2.55;;;;;;;;;;5065744;28;20024;-78
2022/08/09 07:41:37;;;;;;;4.13;2.40;;;;;;;;;;5072903;28;20028;-74
2022/08/09 07:44:03;;;;;;;6.13;2.58;;;;;;;;;;5068328;28;20024;-73
2022/08/09 07:46:29;;;;;;;4.35;2.40;;;;;;;;;;5067513;28;20024;-76
2022/08/09 07:48:55;;;;;;;3.80;2.20;;;;;;;;;;5065971;28;20335;-74
2022/08/09 07:51:20;;;;;;;3.25;2.08;;;;;;;;;;5065574;28;20070;-73
2022/08/09 07:53:48;;;;;;;5.93;2.35;;;;;;;;;;5068816;28;20032;-79
2022/08/09 07:56:13;;;;;;;3.97;2.50;;;;;;;;;;5064899;28;20032;-76
2022/08/09 07:58:38;;;;;;;4.22;2.05;;;;;;;;;;5064219;28;20387;-78
2022/08/09 08:01:05;;;;;;;4.53;2.25;;;;;;;;;;5054027;28;20032;-75
2022/08/09 08:03:30;;;;;;;4.13;2.17;;;;;;;;;;5065006;28;20365;-77
2022/08/09 08:05:55;;;;;;;4.55;1.80;;;;;;;;;;5058199;28;20039;-74
2022/08/09 08:08:21;;;;;;;6.07;2.05;;;;;;;;;;5060988;28;20044;-73
2022/08/09 08:10:46;;;;;;;3.55;2.10;;;;;;;;;;5066613;28;20077;-80
2022/08/09 08:13:12;;;;;;;3.08;1.95;;;;;;;;;;5068328;28;20052;-79
2022/08/09 08:15:37;;;;;;;3.83;1.95;;;;;;;;;;5069858;28;20032;-78
2022/08/09 08:18:03;;;;;;;3.85;1.80;;;;;;;;;;5068915;28;20020;-78
2022/08/09 08:20:29;;;;;;;2.42;1.60;;;;;;;;;;5069144;28;20025;-74
2022/08/09 08:22:54;;;;;;;3.50;1.67;;;;;;;;;;5061772;28;20085;-79
2022/08/09 08:25:20;;;;;;;5.22;1.40;;;;;;;;;;5066172;28;20024;-79
2022/08/09 08:27:45;;;;;;;2.85;1.30;;;;;;;;;;5064656;28;20032;-74
2022/08/09 08:30:12;;;;;;;2.50;1.35;;;;;;;;;;5065315;28;20111;-75
2022/08/09 08:32:38;;;;;;;3.75;1.77;;;;;;;;;;5065799;28;20040;-79
2022/08/09 08:35:04;;;;;;;2.60;1.25;;;;;;;;;;5067698;28;20111;-74
2022/08/09 08:37:30;;;;;;;1.92;1.30;;;;;;;;;;5064365;28;20115;-80
2022/08/09 08:39:55;;;;;;;2.83;1.30;;;;;;;;;;5074058;28;20041;-74
2022/08/09 08:42:21;;;;;;;1.75;1.20;;;;;;;;;;5065316;28;20033;-73
2022/08/09 08:44:52;;;;;;;1.58;1.10;;;;;;;;;;5071265;28;20032;-77
2022/08/09 08:47:18;;;;;;;3.35;1.60;;;;;;;;;;5067511;28;20093;-73
2022/08/09 08:49:44;;;;;;;1.63;1.10;;;;;;;;;;5067966;28;20146;-73
2022/08/09 08:52:09;;;;;;;4.13;1.00;;;;;;;;;;5067921;28;20055;-76
2022/08/09 08:54:35;;;;;;;2.45;1.20;;;;;;;;;;5069431;28;20024;-73
2022/08/09 08:57:02;;;;;;;2.45;1.05;;;;;;;;;;5073528;28;20031;-76
2022/08/09 08:59:28;;;;;;;7.25;1.30;;;;;;;;;;5071154;28;20054;-73
2022/08/09 09:01:54;;;;;;;3.70;1.38;;;;;;;;;;5072352;28;20032;-77
2022/08/09 09:04:22;;;;;;;2.88;1.13;;;;;;;;;;5068199;28;20071;-77
2022/08/09 09:06:53;;;;;;;2.03;1.30;;;;;;;;;;5067208;28;20056;-80
2022/08/09 09:09:20;;;;;;;1.85;0.95;;;;;;;;;;5070798;28;20113;-80
2022/08/09 09:11:46;;;;;;;1.83;0.90;;;;;;;;;;5072699;28;20514;-73
2022/08/09 09:14:18;;;;;;;5.38;1.00;;;;;;;;;;5059881;28;20016;-73
2022/08/09 09:16:44;;;;;;;1.70;0.70;;;;;;;;;;5066852;28;20025;-73
2022/08/09 09:19:11;;;;;;;1.40;0.73;;;;;;;;;;5059096;28;20032;-73
2022/08/09 09:21:54;;;;;;;2.35;0.90;;;;;;;;;;5063888;28;20035;-73
2022/08/09 09:24:26;;;;;;;1.30;0.80;;;;;;;;;;5074227;28;20388;-76
2022/08/09 09:27:00;;;;;;;2.90;0.80;;;;;;;;;;5076304;28;20392;-74
2022/08/09 09:29:37;;;;;;;2.13;0.80;;;;;;;;;;5072173;28;20047;-82
2022/08/09 09:32:03;;;;;;;1.65;0.70;;;;;;;;;;5072406;28;20051;-82
2022/08/09 09:34:29;;;;;;;1.70;0.60;;;;;;;;;;5063998;28;20044;-73
2022/08/09 09:36:55;;;;;;;1.60;0.70;;;;;;;;;;5064107;28;20489;-78
2022/08/09 09:39:26;;;;;;;1.95;0.65;;;;;;;;;;5066923;28;20044;-77
2022/08/09 09:41:51;;;;;;;0.65;0.60;;;;;;;;;;5067169;28;20107;-80
2022/08/09 09:44:27;;;;;;;1.15;0.65;;;;;;;;;;5054859;28;20028;-77
2022/08/09 09:47:03;;;;;;;1.70;0.70;;;;;;;;;;5066787;28;20020;-81
2022/08/09 09:49:29;;;;;;;1.35;0.65;;;;;;;;;;5065516;28;20035;-82
2022/08/09 09:52:07;;;;;;;2.47;0.60;;;;;;;;;;5067318;28;20020;-78
2022/08/09 09:54:42;;;;;;;1.15;0.70;;;;;;;;;;5065665;28;20598;-78
2022/08/09 09:57:18;;;;;;;0.70;0.50;;;;;;;;;;5064274;28;20021;-77
2022/08/09 09:59:45;;;;;;;1.50;0.50;;;;;;;;;;5065912;28;20024;-73
2022/08/09 10:02:11;;;;;;;1.40;0.50;;;;;;;;;;5057498;28;20081;-74
2022/08/09 10:04:36;;;;;;;1.10;0.50;;;;;;;;;;5077953;28;20584;-75
2022/08/09 10:07:03;;;;;;;1.77;0.52;;;;;;;;;;5067204;28;20119;-77
2022/08/09 10:09:46;;;;;;;2.15;0.55;;;;;;;;;;5061696;28;20031;-75
2022/08/09 10:12:25;;;;;;;1.67;0.68;;;;;;;;;;5061432;28;20020;-73
2022/08/09 10:15:00;;;;;;;1.88;0.70;;;;;;;;;;5064621;28;20534;-77
2022/08/09 10:17:33;;;;;;;1.73;0.60;;;;;;;;;;5064881;28;20025;-77
2022/08/09 10:20:00;;;;;;;2.65;0.80;;;;;;;;;;5069168;28;20024;-76
2022/08/09 10:22:37;;;;;;;2.00;0.80;;;;;;;;;;5066869;28;20028;-73
2022/08/09 10:25:05;;;;;;;1.58;0.60;;;;;;;;;;5070104;28;20120;-79
2022/08/09 10:27:31;;;;;;;2.15;0.68;;;;;;;;;;5069527;28;20036;-75
2022/08/09 10:30:00;;;;;;;0.85;0.60;;;;;;;;;;5065932;28;20029;-74
2022/08/09 10:32:26;;;;;;;1.00;0.60;;;;;;;;;;5069553;28;20127;-73
2022/08/09 10:34:54;;;;;;;1.17;0.60;;;;;;;;;;5068763;28;20021;-77
2022/08/09 10:37:20;;;;;;;3.03;0.80;;;;;;;;;;5060626;28;20048;-81
2022/08/09 10:39:46;;;;;;;1.55;0.68;;;;;;;;;;5063722;28;20029;-82
2022/08/09 10:42:13;;;;;;;1.00;0.60;;;;;;;;;;5060185;28;20497;-76
2022/08/09 10:44:39;;;;;;;1.55;0.77;;;;;;;;;;5061371;28;20446;-76
2022/08/09 10:47:12;;;;;;;1.35;0.60;;;;;;;;;;5051124;28;20044;-75
2022/08/09 10:50:02;;;;;;;1.23;0.70;;;;;;;;;;5063097;28;20063;-76
2022/08/09 10:53:04;;;;;;;2.63;0.80;;;;;;;;;;5053856;28;20031;-77
2022/08/09 10:55:32;;;;;;;2.67;0.60;;;;;;;;;;5046176;28;20444;-76
2022/08/09 10:57:57;;;;;;;1.45;0.60;;;;;;;;;;5067129;28;20085;-76
2022/08/09 11:00:42;;;;;;;1.77;0.88;;;;;;;;;;5073090;28;20082;-75
2022/08/09 11:03:20;;;;;;;1.05;0.52;;;;;;;;;;5053919;28;20058;-76
2022/08/09 11:06:18;;;;;;;1.52;0.70;;;;;;;;;;5064107;28;20082;-76
2022/08/09 11:08:47;;;;;;;0.60;0.50;;;;;;;;;;5063877;28;20029;-77
2022/08/09 11:11:12;;;;;;;4.05;0.60;;;;;;;;;;5062801;28;20017;-75
2022/08/09 11:13:38;;;;;;;1.75;0.60;;;;;;;;;;5059883;28;20616;-75
2022/08/09 11:16:36;;;;;;;2.22;0.70;;;;;;;;;;5058938;28;20535;-77
2022/08/09 11:19:03;;;;;;;1.75;0.60;;;;;;;;;;5054899;28;20028;-75
2022/08/09 11:22:01;;;;;;;1.75;0.70;;;;;;;;;;5049290;28;20051;-76
2022/08/09 11:24:48;;;;;;;1.92;0.65;;;;;;;;;;5024395;28;20066;-76
2022/08/09 11:27:35;;;;;;;1.65;0.52;;;;;;;;;;5063799;28;20511;-77
2022/08/09 11:30:01;;;;;;;1.38;0.70;;;;;;;;;;5064490;28;20024;-75
2022/08/09 11:32:44;;;;;;;0.75;0.60;;;;;;;;;;5056686;28;20041;-76
2022/08/09 11:35:33;;;;;;;1.35;0.60;;;;;;;;;;5057785;28;20066;-77
2022/08/09 11:38:19;;;;;;;3.65;1.33;;;;;;;;;;5039526;28;20040;-75
2022/08/09 11:40:45;;;;;;;1.45;0.60;;;;;;;;;;5053802;28;20256;-76
2022/08/09 11:43:41;;;;;;;1.15;0.50;;;;;;;;;;5057284;28;20612;-77
2022/08/09 11:46:08;;;;;;;1.13;0.60;;;;;;;;;;5045896;28;20050;-76
2022/08/09 11:48:52;;;;;;;1.13;0.65;;;;;;;;;;5065124;28;20033;-74
2022/08/09 11:51:20;;;;;;;4.68;0.98;;;;;;;;;;5060803;28;20028;-74
2022/08/09 11:53:46;;;;;;;1.48;0.50;;;;;;;;;;5063040;28;20484;-76
2022/08/09 11:56:14;;;;;;;1.92;0.60;;;;;;;;;;5059852;28;20110;-76
2022/08/09 11:58:40;;;;;;;2.45;0.55;;;;;;;;;;5053462;28;20500;-74
2022/08/09 12:01:05;;;;;;;0.80;0.50;;;;;;;;;;5054516;28;20046;-74
2022/08/09 12:03:31;;;;;;;0.90;0.50;;;;;;;;;;5057593;28;20366;-76
2022/08/09 12:05:59;;;;;;;1.63;0.50;;;;;;;;;;5059815;28;20032;-74
2022/08/09 12:08:26;;;;;;;3.25;0.70;;;;;;;;;;5055735;28;20035;-76
2022/08/09 12:10:54;;;;;;;1.13;0.70;;;;;;;;;;5064147;28;20419;-76
2022/08/09 12:13:45;;;;;;;1.55;0.60;;;;;;;;;;5063248;28;20108;-75
2022/08/09 12:16:12;;;;;;;1.58;0.65;;;;;;;;;;5054044;28;20064;-77
2022/08/09 12:18:42;;;;;;;0.90;0.50;;;;;;;;;;5056259;28;20098;-76
2022/08/09 12:21:08;;;;;;;1.02;0.60;;;;;;;;;;5057832;28;21121;-76
2022/08/09 12:23:41;;;;;;;1.48;0.50;;;;;;;;;;5056350;28;20039;-76
2022/08/09 12:26:06;;;;;;;0.73;0.45;;;;;;;;;;5055551;28;20479;-76
2022/08/09 12:28:33;;;;;;;3.53;0.60;;;;;;;;;;5055870;28;20356;-76
2022/08/09 12:30:59;;;;;;;1.25;0.60;;;;;;;;;;5056359;28;20031;-76
2022/08/09 12:33:26;;;;;;;2.10;0.52;;;;;;;;;;5054517;28;20075;-77
2022/08/09 12:36:11;;;;;;;1.83;0.50;;;;;;;;;;5052663;28;20118;-76
2022/08/09 12:38:37;;;;;;;1.13;0.68;;;;;;;;;;5057223;28;20048;-77
2022/08/09 12:41:02;;;;;;;1.17;0.60;;;;;;;;;;5056250;28;20047;-76
2022/08/09 12:43:28;;;;;;;1.17;0.60;;;;;;;;;;5061312;28;20427;-76
2022/08/09 12:45:56;;;;;;;0.65;0.50;;;;;;;;;;5062120;28;20063;-76
2022/08/09 12:48:22;;;;;;;1.10;0.60;;;;;;;;;;5058214;28;20074;-76
2022/08/09 12:50:48;;;;;;;1.95;0.63;;;;;;;;;;5061600;28;20680;-77
2022/08/09 12:53:36;;;;;;;2.05;0.40;;;;;;;;;;5065175;28;20032;-75
2022/08/09 12:56:19;;;;;;;0.60;0.40;;;;;;;;;;5053851;28;20025;-76
2022/08/09 12:59:11;;;;;;;3.83;0.60;;;;;;;;;;5054778;28;20032;-76
2022/08/09 13:01:39;;;;;;;1.33;0.60;;;;;;;;;;5056978;28;20408;-76
2022/08/09 13:04:10;;;;;;;1.33;0.60;;;;;;;;;;5056104;28;20071;-76
2022/08/09 13:06:42;;;;;;;0.82;0.50;;;;;;;;;;5058139;28;20041;-76
2022/08/09 13:09:28;;;;;;;1.02;0.60;;;;;;;;;;5056300;28;20032;-77
2022/08/09 13:11:58;;;;;;;1.05;0.50;;;;;;;;;;5059115;28;20665;-76
2022/08/09 13:14:25;;;;;;;2.33;0.60;;;;;;;;;;5059676;28;20024;-75
2022/08/09 13:16:53;;;;;;;3.60;0.63;;;;;;;;;;5060394;28;20485;-74
2022/08/09 13:19:25;;;;;;;4.57;0.70;;;;;;;;;;5059344;28;20051;-76
2022/08/09 13:22:20;;;;;;;2.67;0.80;;;;;;;;;;5068189;28;20033;-74
2022/08/09 13:24:58;;;;;;;1.77;0.60;;;;;;;;;;5057318;28;20031;-76
2022/08/09 13:27:34;;;;;;;1.50;0.60;;;;;;;;;;5054277;28;20025;-76
2022/08/09 13:30:01;;;;;;;1.58;0.55;;;;;;;;;;5059422;28;20494;-76
2022/08/09 13:32:50;;;;;;;1.55;0.85;;;;;;;;;;5057305;28;20044;-77
2022/08/09 13:35:21;;;;;;;1.02;0.65;;;;;;;;;;5056311;28;20139;-76
2022/08/09 13:37:48;;;;;;;1.35;0.50;;;;;;;;;;5060592;28;20032;-76
2022/08/09 13:40:14;;;;;;;1.30;0.70;;;;;;;;;;5058695;28;20051;-77
2022/08/09 13:42:41;;;;;;;0.93;0.47;;;;;;;;;;5050447;28;20032;-76
2022/08/09 13:45:08;;;;;;;2.40;0.50;;;;;;;;;;5058053;28;20051;-76
2022/08/09 13:47:34;;;;;;;1.92;0.65;;;;;;;;;;5060193;28;20055;-76
2022/08/09 13:50:06;;;;;;;0.90;0.50;;;;;;;;;;5055658;28;20035;-74
2022/08/09 13:52:33;;;;;;;2.28;0.60;;;;;;;;;;5058124;28;20025;-76
2022/08/09 13:54:59;;;;;;;1.48;0.60;;;;;;;;;;5058341;28;20583;-75
2022/08/09 13:57:25;;;;;;;1.20;0.50;;;;;;;;;;5055039;28;20036;-75
2022/08/09 13:59:51;;;;;;;0.98;0.50;;;;;;;;;;5060431;28;20037;-76
2022/08/09 14:02:16;;;;;;;1.63;0.70;;;;;;;;;;5058210;28;20098;-76
2022/08/09 14:04:42;;;;;;;1.27;0.60;;;;;;;;;;5059788;28;20160;-75
2022/08/09 14:07:07;;;;;;;0.80;0.40;;;;;;;;;;5057184;28;20024;-76
2022/08/09 14:09:32;;;;;;;1.55;0.60;;;;;;;;;;5063684;28;20036;-75
2022/08/09 14:12:00;;;;;;;2.17;0.60;;;;;;;;;;5062846;28;20024;-76
2022/08/09 14:14:26;;;;;;;0.90;0.50;;;;;;;;;;5060299;28;20032;-75
2022/08/09 14:16:52;;;;;;;1.52;0.50;;;;;;;;;;5064629;28;20216;-76
2022/08/09 14:19:18;;;;;;;1.90;0.57;;;;;;;;;;5067038;28;20032;-75
2022/08/09 14:21:43;;;;;;;0.60;0.45;;;;;;;;;;5058482;28;20029;-75
2022/08/09 14:24:13;;;;;;;3.00;0.70;;;;;;;;;;5059425;28;20055;-76
2022/08/09 14:26:40;;;;;;;3.08;0.70;;;;;;;;;;5060006;28;20035;-75
2022/08/09 14:29:09;;;;;;;1.08;0.60;;;;;;;;;;5076472;28;20396;-76
2022/08/09 14:31:35;;;;;;;1.80;0.68;;;;;;;;;;5056309;28;20056;-76
2022/08/09 14:34:01;;;;;;;0.68;0.50;;;;;;;;;;5053895;28;20044;-76
2022/08/09 14:36:27;;;;;;;0.93;0.50;;;;;;;;;;5053756;28;20032;-76
2022/08/09 14:38:52;;;;;;;1.65;0.55;;;;;;;;;;5051755;28;20508;-74
2022/08/09 14:41:17;;;;;;;0.98;0.50;;;;;;;;;;5051484;28;20131;-76
2022/08/09 14:43:43;;;;;;;0.85;0.50;;;;;;;;;;5050376;28;20028;-76
2022/08/09 14:46:08;;;;;;;2.05;0.50;;;;;;;;;;5058526;28;20650;-76
2022/08/09 14:48:34;;;;;;;0.93;0.60;;;;;;;;;;5059374;28;20501;-74
2022/08/09 14:50:59;;;;;;;1.33;0.52;;;;;;;;;;5057053;28;20028;-76
2022/08/09 14:53:25;;;;;;;0.95;0.60;;;;;;;;;;5053492;28;20048;-77
2022/08/09 14:55:50;;;;;;;1.45;0.50;;;;;;;;;;5059010;28;20024;-76